Montadas, Brazil
Current Conditions -  °F | °C
As of 1:00 PM on Friday 19 Dec 2014 (Local Time) from SBKG Reporting Station
Broken Clouds Broken Clouds  
Wind Chill: 84°   Ceiling: 3000
Heat Index: 86°   Visibility: 6mi
Dew Point: 66°   Wind: 17mph
Humidity: 55%   Direction: 90°E
Pressure: 29.91"   Gusts: NA
Location:  7.14°S, 35.91°W
Report Text: SBKG 191600Z 09015KT 9999 BKN030 BKN090 29/19 Q1013
Loading
Personal Weather Stations






























Interactive Weather Map New forecast layout! Learn more

10-Day Weather Forecast

Advertisements
Track Severe Weather on mobile